createdAt,value
2022-09-06T00:00:23.791Z,100786.47
2022-09-06T00:03:12.369Z,100781.50
2022-09-06T00:06:08.202Z,100782.13
2022-09-06T00:08:56.721Z,100774.09
2022-09-06T00:11:45.139Z,100767.88
2022-09-06T00:14:33.626Z,100774.47
2022-09-06T00:17:22.424Z,100766.25
2022-09-06T00:20:11.231Z,100768.31
2022-09-06T00:23:02.182Z,100762.09
2022-09-06T00:25:50.668Z,100770.16
2022-09-06T00:28:39.455Z,100761.06
2022-09-06T00:31:28.816Z,100761.06
2022-09-06T00:34:17.409Z,100758.38
2022-09-06T00:37:05.871Z,100756.34
2022-09-06T00:39:55.759Z,100758.38
2022-09-06T00:42:44.421Z,100757.59
2022-09-06T00:45:33.479Z,100762.09
2022-09-06T00:48:22.933Z,100754.06
2022-09-06T00:51:13.208Z,100754.69
2022-09-06T00:54:04.411Z,100755.50
2022-09-06T00:56:54.236Z,100755.50
2022-09-06T00:59:44.302Z,100763.38
2022-09-06T01:02:32.912Z,100759.66
2022-09-06T01:05:22.359Z,100752.63
2022-09-06T01:08:18.384Z,100758.00
2022-09-06T01:11:18.689Z,100756.34
2022-09-06T01:14:15.918Z,100753.66
2022-09-06T01:17:11.654Z,100741.91
2022-09-06T01:20:30.730Z,100746.25
2022-09-06T01:23:54.891Z,100742.53
2022-09-06T01:27:18.331Z,100748.91
2022-09-06T01:30:09.792Z,100749.53
2022-09-06T01:33:02.170Z,100752.22
2022-09-06T01:35:53.462Z,100756.75
2022-09-06T01:38:41.911Z,100747.03
2022-09-06T01:41:30.925Z,100751.00
2022-09-06T01:44:19.510Z,100739.22
2022-09-06T01:47:18.849Z,100742.94
2022-09-06T01:50:38.743Z,100743.56
2022-09-06T01:53:38.450Z,100752.63
2022-09-06T01:56:33.946Z,100752.63
2022-09-06T01:59:32.600Z,100759.66
2022-09-06T02:02:26.938Z,100750.56
2022-09-06T02:05:23.139Z,100749.72
2022-09-06T02:08:14.512Z,100757.56
2022-09-06T02:11:04.714Z,100754.28
2022-09-06T02:13:56.783Z,100751.38
2022-09-06T02:16:47.474Z,100753.25
2022-09-06T02:19:39.599Z,100758.00
2022-09-06T02:22:31.814Z,100754.47
2022-09-06T02:25:23.903Z,100758.00
2022-09-06T02:28:12.683Z,100767.09
2022-09-06T02:31:03.489Z,100761.28
2022-09-06T02:33:52.859Z,100759.66
2022-09-06T02:36:43.383Z,100756.34
2022-09-06T02:39:32.011Z,100758.63
2022-09-06T02:42:20.561Z,100756.13
2022-09-06T02:45:10.393Z,100756.75
2022-09-06T02:47:58.933Z,100756.13
2022-09-06T02:50:47.384Z,100752.84
2022-09-06T02:53:39.755Z,100759.66
2022-09-06T02:56:28.268Z,100758.63
2022-09-06T02:59:16.817Z,100748.09
2022-09-06T03:02:05.374Z,100757.56
2022-09-06T03:04:58.136Z,100754.91
2022-09-06T03:07:46.676Z,100754.28
2022-09-06T03:10:36.522Z,100752.63
2022-09-06T03:13:25.945Z,100752.63
2022-09-06T03:16:14.485Z,100743.94
2022-09-06T03:19:03.298Z,100739.44
2022-09-06T03:21:51.859Z,100735.91
2022-09-06T03:24:40.721Z,100726.22
2022-09-06T03:27:30.590Z,100733.22
2022-09-06T03:30:19.252Z,100733.22
2022-09-06T03:33:07.771Z,100741.50
2022-09-06T03:35:58.431Z,100742.31
2022-09-06T03:38:47.055Z,100733.22
2022-09-06T03:41:35.520Z,100738.38
2022-09-06T03:44:25.514Z,100736.94
2022-09-06T03:47:17.549Z,100739.63
2022-09-06T03:50:09.291Z,100742.31
2022-09-06T03:52:57.821Z,100738.59
2022-09-06T03:55:46.819Z,100733.22
2022-09-06T03:58:35.320Z,100735.28
2022-09-06T04:01:25.550Z,100735.09
2022-09-06T04:04:14.092Z,100725.81
2022-09-06T04:07:02.625Z,100722.50
2022-09-06T04:09:51.143Z,100724.56
2022-09-06T04:12:39.802Z,100721.50
2022-09-06T04:15:28.329Z,100717.13
2022-09-06T04:18:18.562Z,100727.47
2022-09-06T04:21:07.498Z,100722.28
2022-09-06T04:23:56.048Z,100715.47
2022-09-06T04:26:44.571Z,100710.75
2022-09-06T04:29:33.078Z,100709.72
2022-09-06T04:32:21.551Z,100707.66
2022-09-06T04:35:11.720Z,100712.19
2022-09-06T04:38:02.260Z,100706.03
2022-09-06T04:40:50.829Z,100692.81
2022-09-06T04:43:39.487Z,100699.81
2022-09-06T04:46:29.878Z,100698.16
2022-09-06T04:49:18.399Z,100691.16
2022-09-06T04:52:08.227Z,100693.22
2022-09-06T04:54:56.737Z,100693.22
2022-09-06T04:57:49.541Z,100696.09
2022-09-06T05:00:41.734Z,100693.84
2022-09-06T05:03:30.255Z,100695.69
2022-09-06T05:06:24.539Z,100696.53
2022-09-06T05:09:14.934Z,100696.53
2022-09-06T05:12:03.866Z,100691.16
2022-09-06T05:14:52.375Z,100690.75
2022-09-06T05:17:40.808Z,100695.69
2022-09-06T05:20:29.344Z,100695.69
2022-09-06T05:23:17.793Z,100700.84
2022-09-06T05:26:07.778Z,100696.53
2022-09-06T05:28:56.260Z,100703.53
2022-09-06T05:31:44.808Z,100695.91
2022-09-06T05:34:33.333Z,100697.97
2022-09-06T05:37:21.801Z,100688.91
2022-09-06T05:40:11.386Z,100686.22
2022-09-06T05:43:01.246Z,100684.56
2022-09-06T05:45:51.321Z,100687.03
2022-09-06T05:48:40.045Z,100687.88
2022-09-06T05:51:28.559Z,100688.91
2022-09-06T05:54:17.166Z,100697.97
2022-09-06T05:57:05.944Z,100704.16
2022-09-06T05:59:56.057Z,100701.69
2022-09-06T06:02:47.921Z,100701.69
2022-09-06T06:05:36.540Z,100693.66
2022-09-06T06:08:25.095Z,100683.13
2022-09-06T06:11:14.110Z,100689.53
2022-09-06T06:14:03.771Z,100695.31
2022-09-06T06:16:53.664Z,100687.03
2022-09-06T06:19:42.198Z,100678.38
2022-09-06T06:22:30.617Z,100675.50
2022-09-06T06:25:23.127Z,100677.16
2022-09-06T06:28:11.590Z,100687.03
2022-09-06T06:31:00.622Z,100692.41
2022-09-06T06:33:50.491Z,100685.41
2022-09-06T06:36:39.519Z,100685.41
2022-09-06T06:39:28.057Z,100683.31
2022-09-06T06:42:16.539Z,100683.31
2022-09-06T06:45:05.565Z,100684.56
2022-09-06T06:47:54.064Z,100684.56
2022-09-06T06:50:43.897Z,100683.53
2022-09-06T06:53:32.841Z,100691.16
2022-09-06T06:56:25.258Z,100692.81
2022-09-06T06:59:13.788Z,100684.16
2022-09-06T07:02:02.412Z,100684.56
2022-09-06T07:04:50.913Z,100687.44
2022-09-06T07:07:41.113Z,100689.69
2022-09-06T07:10:33.466Z,100687.03
2022-09-06T07:13:22.439Z,100694.47
2022-09-06T07:16:13.298Z,100690.75
2022-09-06T07:19:01.880Z,100690.13
2022-09-06T07:21:53.233Z,100687.84
2022-09-06T07:24:43.337Z,100688.66
2022-09-06T07:27:48.013Z,100690.31
2022-09-06T07:30:38.573Z,100686.63
2022-09-06T07:33:27.093Z,100686.00
2022-09-06T07:36:15.645Z,100685.78
2022-09-06T07:39:04.540Z,100684.94
2022-09-06T07:41:54.452Z,100673.41
2022-09-06T07:44:42.974Z,100681.66
2022-09-06T07:53:32.880Z,100696.09
2022-09-06T07:56:22.710Z,100693.84
2022-09-06T07:59:12.683Z,100692.63
2022-09-06T08:02:01.275Z,100687.44
2022-09-06T08:04:51.615Z,100695.28
2022-09-06T08:07:40.621Z,100687.03
2022-09-06T08:10:31.426Z,100690.75
2022-09-06T08:13:19.990Z,100692.38
2022-09-06T08:16:11.759Z,100690.75
2022-09-06T08:19:01.457Z,100691.78
2022-09-06T08:21:49.970Z,100701.47
2022-09-06T08:24:38.670Z,100703.94
2022-09-06T08:27:27.215Z,100702.31
2022-09-06T08:30:15.840Z,100703.13
2022-09-06T08:33:05.825Z,100703.13
2022-09-06T08:35:57.508Z,100699.41
2022-09-06T08:38:46.673Z,100695.69
2022-09-06T08:41:39.660Z,100691.56
2022-09-06T08:47:39.960Z,100683.94
2022-09-06T08:50:31.891Z,100679.19
2022-09-06T08:53:21.028Z,100678.59
2022-09-06T08:56:16.387Z,100679.81
2022-09-06T08:59:06.679Z,100668.03
2022-09-06T09:02:01.662Z,100663.91
2022-09-06T09:04:53.896Z,100667.59
2022-09-06T09:07:45.844Z,100665.34
2022-09-06T09:10:42.210Z,100661.22
2022-09-06T09:13:36.225Z,100660.59
2022-09-06T09:16:24.944Z,100654.81
2022-09-06T09:19:13.457Z,100652.13
2022-09-06T09:22:02.634Z,100648.00
2022-09-06T09:24:53.107Z,100659.34
2022-09-06T09:27:42.161Z,100647.59
2022-09-06T09:30:49.134Z,100642.03
2022-09-06T09:33:39.156Z,100640.78
2022-09-06T09:36:29.985Z,100646.38
2022-09-06T09:39:19.565Z,100644.72
2022-09-06T09:42:10.547Z,100638.31
2022-09-06T09:44:59.335Z,100630.03
2022-09-06T09:47:48.187Z,100631.06
2022-09-06T09:50:37.268Z,100623.44
2022-09-06T09:53:27.050Z,100613.13
2022-09-06T09:56:16.507Z,100609.41
2022-09-06T09:59:10.024Z,100614.56
2022-09-06T10:02:01.475Z,100606.50
2022-09-06T10:04:51.963Z,100606.09
2022-09-06T10:07:45.232Z,100605.03
2022-09-06T10:10:36.278Z,100606.91
2022-09-06T10:13:26.577Z,100602.78
2022-09-06T10:16:16.579Z,100606.50
2022-09-06T10:19:23.561Z,100598.19
2022-09-06T10:22:30.503Z,100597.16
2022-09-06T10:25:39.079Z,100589.56
2022-09-06T10:28:33.293Z,100593.69
2022-09-06T10:32:01.241Z,100588.09
2022-09-06T10:35:05.818Z,100594.50
2022-09-06T10:38:08.564Z,100590.59
2022-09-06T10:41:02.226Z,100585.81
2022-09-06T10:43:57.709Z,100584.59
2022-09-06T10:46:47.220Z,100590.34
2022-09-06T10:49:37.909Z,100582.94
2022-09-06T10:52:31.459Z,100576.97
2022-09-06T10:55:21.615Z,100578.81
2022-09-06T11:01:03.806Z,100582.09
2022-09-06T11:03:55.562Z,100575.28
2022-09-06T11:06:52.901Z,100577.34
2022-09-06T11:09:46.185Z,100569.94
2022-09-06T11:12:38.501Z,100568.06
2022-09-06T11:15:28.298Z,100557.75
2022-09-06T11:18:19.615Z,100562.25
2022-09-06T11:21:28.312Z,100559.41
2022-09-06T11:24:18.178Z,100554.84
2022-09-06T11:27:17.621Z,100551.88
2022-09-06T11:30:07.088Z,100553.06
2022-09-06T11:33:14.537Z,100549.75
2022-09-06T11:36:19.047Z,100543.91
2022-09-06T11:39:09.634Z,100538.97
2022-09-06T11:41:58.372Z,100540.19
2022-09-06T11:45:11.345Z,100546.75
2022-09-06T11:48:37.510Z,100537.94
2022-09-06T11:51:38.459Z,100523.50
2022-09-06T11:54:32.146Z,100539.75
2022-09-06T11:57:23.453Z,100532.69
2022-09-06T12:00:21.881Z,100526.47
2022-09-06T12:06:22.154Z,100515.75
2022-09-06T12:09:30.027Z,100515.97
2022-09-06T12:12:43.121Z,100507.88
2022-09-06T12:15:32.966Z,100507.28
2022-09-06T12:18:55.111Z,100499.97
2022-09-06T12:21:47.535Z,100490.66
2022-09-06T12:24:56.678Z,100490.19
2022-09-06T12:27:52.864Z,100494.19
2022-09-06T12:30:43.072Z,100492.09
2022-09-06T12:33:33.880Z,100493.31
2022-09-06T12:36:24.144Z,100480.03
2022-09-06T12:39:15.116Z,100478.63
2022-09-06T12:42:05.197Z,100480.81
2022-09-06T12:44:57.761Z,100480.34
2022-09-06T12:47:46.484Z,100482.97
2022-09-06T12:50:35.039Z,100480.22
2022-09-06T12:53:25.504Z,100488.28
2022-09-06T12:56:15.437Z,100478.66
2022-09-06T12:59:23.460Z,100469.59
2022-09-06T13:02:14.785Z,100469.19
2022-09-06T13:05:06.626Z,100478.72
2022-09-06T13:07:57.952Z,100476.03
2022-09-06T13:10:47.928Z,100480.22
2022-09-06T13:13:37.870Z,100470.13
2022-09-06T13:16:29.495Z,100476.75
2022-09-06T13:19:21.683Z,100471.63
2022-09-06T13:22:11.820Z,100461.22
2022-09-06T13:25:00.339Z,100469.75
2022-09-06T13:27:51.111Z,100486.31
2022-09-06T13:30:49.042Z,100505.94
2022-09-06T13:33:39.140Z,100558.56
2022-09-06T13:36:30.671Z,100551.59
2022-09-06T13:39:32.538Z,100558.50
2022-09-06T13:42:31.550Z,100562.19
2022-09-06T13:45:25.665Z,100573.06
2022-09-06T13:48:28.699Z,100579.66
2022-09-06T13:51:18.371Z,100594.81
2022-09-06T13:54:07.797Z,100612.63
2022-09-06T13:56:56.452Z,100613.22
2022-09-06T13:59:46.319Z,100614.50
2022-09-06T14:02:34.899Z,100614.28
2022-09-06T14:05:24.711Z,100613.88
2022-09-06T14:08:13.185Z,100607.06
2022-09-06T14:11:02.731Z,100608.09
2022-09-06T14:13:51.241Z,100606.84
2022-09-06T14:16:39.803Z,100605.63
2022-09-06T14:19:28.876Z,100617.59
2022-09-06T14:22:18.828Z,100609.75
2022-09-06T14:25:08.175Z,100604.81
2022-09-06T14:27:56.744Z,100610.19
2022-09-06T14:30:45.316Z,100601.50
2022-09-06T14:33:33.827Z,100599.03
2022-09-06T14:36:23.928Z,100591.59
2022-09-06T14:39:14.145Z,100583.34
2022-09-06T14:42:02.837Z,100569.28
2022-09-06T14:44:51.465Z,100562.09
2022-09-06T14:47:40.177Z,100561.44
2022-09-06T14:50:28.947Z,100551.16
2022-09-06T14:53:38.773Z,100553.44
2022-09-06T14:56:27.630Z,100547.22
2022-09-06T14:59:16.241Z,100543.09
2022-09-06T15:02:05.334Z,100549.09
2022-09-06T15:04:54.995Z,100538.78
2022-09-06T15:07:43.717Z,100525.59
2022-09-06T15:10:32.480Z,100530.53
2022-09-06T15:13:22.527Z,100516.06
2022-09-06T15:16:12.561Z,100521.44
2022-09-06T15:19:02.273Z,100510.72
2022-09-06T15:21:58.685Z,100509.91
2022-09-06T15:24:47.369Z,100509.06
2022-09-06T15:27:37.807Z,100503.69
2022-09-06T15:30:27.821Z,100502.88
2022-09-06T15:33:17.722Z,100485.75
2022-09-06T15:36:08.483Z,100483.88
2022-09-06T15:38:59.206Z,100468.66
2022-09-06T15:41:47.879Z,100462.47
2022-09-06T15:44:36.526Z,100469.88
2022-09-06T15:47:26.555Z,100474.38
2022-09-06T15:50:25.269Z,100477.31
2022-09-06T15:53:23.522Z,100470.66
2022-09-06T15:56:19.896Z,100475.66
2022-09-06T15:59:08.613Z,100480.44
2022-09-06T16:01:57.265Z,100486.41
2022-09-06T16:04:47.486Z,100489.69
2022-09-06T16:07:38.211Z,100481.03
2022-09-06T16:10:26.712Z,100488.47
2022-09-06T16:13:15.455Z,100499.22
2022-09-06T16:16:05.927Z,100502.50
2022-09-06T16:18:54.549Z,100493.84
2022-09-06T16:21:44.827Z,100485.16
2022-09-06T16:24:33.604Z,100483.13
2022-09-06T16:27:22.106Z,100483.91
2022-09-06T16:30:13.872Z,100483.13
2022-09-06T16:33:02.380Z,100482.28
2022-09-06T16:35:50.879Z,100487.44
2022-09-06T16:38:41.345Z,100486.41
2022-09-06T16:41:34.600Z,100482.06
2022-09-06T16:44:24.227Z,100481.44
2022-09-06T16:47:16.463Z,100480.19
2022-09-06T16:50:06.208Z,100480.44
2022-09-06T16:52:54.720Z,100482.28
2022-09-06T16:55:44.636Z,100473.19
2022-09-06T16:58:33.317Z,100467.44
2022-09-06T17:01:22.179Z,100474.44
2022-09-06T17:04:12.686Z,100462.28
2022-09-06T17:07:01.270Z,100461.47
2022-09-06T17:09:50.546Z,100458.78
2022-09-06T17:12:40.944Z,100463.94
2022-09-06T17:15:49.701Z,100457.13
2022-09-06T17:18:37.332Z,100457.13
2022-09-06T17:21:26.550Z,100466.03
2022-09-06T17:24:15.608Z,100462.06
2022-09-06T17:27:05.831Z,100467.44
2022-09-06T17:29:55.798Z,100463.34
2022-09-06T17:32:46.749Z,100463.09
2022-09-06T17:35:35.318Z,100458.19
2022-09-06T17:38:23.973Z,100458.78
2022-09-06T17:41:20.694Z,100460.84
2022-09-06T17:44:10.924Z,100466.22
2022-09-06T17:47:12.494Z,100475.31
2022-09-06T17:50:02.099Z,100473.66
2022-09-06T17:52:53.552Z,100475.06
2022-09-06T17:55:42.109Z,100476.94
2022-09-06T17:58:30.767Z,100482.31
2022-09-06T18:01:19.330Z,100480.66
2022-09-06T18:04:13.048Z,100481.72
2022-09-06T18:07:01.586Z,100485.19
2022-09-06T18:09:50.267Z,100482.75
2022-09-06T18:12:39.021Z,100484.81
2022-09-06T18:15:27.613Z,100485.19
2022-09-06T18:18:17.987Z,100497.19
2022-09-06T18:21:08.670Z,100496.38
2022-09-06T18:23:58.796Z,100493.88
2022-09-06T18:26:47.396Z,100498.00
2022-09-06T18:29:36.117Z,100490.56
2022-09-06T18:32:24.829Z,100493.09
2022-09-06T18:35:13.575Z,100487.31
2022-09-06T18:38:05.729Z,100477.19
2022-09-06T18:40:56.545Z,100477.19
2022-09-06T18:43:45.139Z,100480.31
2022-09-06T18:46:38.084Z,100473.69
2022-09-06T18:49:27.285Z,100470.19
2022-09-06T18:52:16.136Z,100471.66
2022-09-06T18:55:07.234Z,100468.75
2022-09-06T18:57:56.944Z,100466.28
2022-09-06T19:00:45.602Z,100473.31
2022-09-06T19:03:34.515Z,100472.69
2022-09-06T19:06:23.550Z,100462.19
2022-09-06T19:09:14.315Z,100468.38
2022-09-06T19:12:07.256Z,100472.69
2022-09-06T19:14:55.789Z,100480.75
2022-09-06T19:17:45.687Z,100477.03
2022-09-06T19:20:34.358Z,100481.94
2022-09-06T19:23:23.846Z,100474.94
2022-09-06T19:26:16.902Z,100474.94
2022-09-06T19:29:08.833Z,100474.94
2022-09-06T19:31:57.463Z,100484.03
2022-09-06T19:34:45.938Z,100478.66
2022-09-06T19:37:34.822Z,100485.22
2022-09-06T19:40:23.384Z,100484.19
2022-09-06T19:43:11.966Z,100470.78
2022-09-06T19:46:04.758Z,100469.59
2022-09-06T19:48:55.955Z,100471.22
2022-09-06T19:51:46.245Z,100471.22
2022-09-06T19:54:34.845Z,100465.44
2022-09-06T19:57:25.767Z,100455.34
2022-09-06T20:00:15.876Z,100455.13
2022-09-06T20:03:05.808Z,100450.59
2022-09-06T20:05:58.111Z,100456.16
2022-09-06T20:08:57.086Z,100447.09
2022-09-06T20:11:48.966Z,100439.03
2022-09-06T20:14:37.508Z,100435.31
2022-09-06T20:17:34.280Z,100433.69
2022-09-06T20:20:24.906Z,100436.97
2022-09-06T20:23:13.639Z,100439.47
2022-09-06T20:26:03.486Z,100435.75
2022-09-06T20:28:56.374Z,100430.41
2022-09-06T20:31:44.975Z,100434.91
2022-09-06T20:34:35.094Z,100432.03
2022-09-06T20:37:25.009Z,100436.81
2022-09-06T20:40:14.204Z,100437.84
2022-09-06T20:43:02.897Z,100425.84
2022-09-06T20:45:51.440Z,100428.75
2022-09-06T20:48:44.399Z,100412.25
2022-09-06T20:51:40.215Z,100416.78
2022-09-06T20:54:30.151Z,100408.75
2022-09-06T20:57:18.699Z,100404.44
2022-09-06T21:00:12.443Z,100409.78
2022-09-06T21:03:02.752Z,100408.16
2022-09-06T21:05:51.579Z,100401.13
2022-09-06T21:08:42.769Z,100394.97
2022-09-06T21:11:33.247Z,100385.06
2022-09-06T21:14:22.754Z,100385.50
2022-09-06T21:17:11.339Z,100376.84
2022-09-06T21:20:00.058Z,100376.84
2022-09-06T21:22:48.586Z,100373.94
2022-09-06T21:25:37.427Z,100377.66
2022-09-06T21:28:29.010Z,100372.69
2022-09-06T21:31:19.690Z,100370.66
2022-09-06T21:34:15.478Z,100371.03
2022-09-06T21:37:05.146Z,100371.50
2022-09-06T21:39:53.747Z,100368.81
2022-09-06T21:42:42.298Z,100376.84
2022-09-06T21:45:32.163Z,100378.28
2022-09-06T21:48:20.737Z,100376.41
2022-09-06T21:51:09.565Z,100364.88
2022-09-06T21:53:58.279Z,100369.41
2022-09-06T21:56:46.815Z,100371.03
2022-09-06T21:59:35.648Z,100367.31
2022-09-06T22:02:27.162Z,100365.25
2022-09-06T22:05:15.943Z,100356.59
2022-09-06T22:08:05.013Z,100349.59
2022-09-06T22:10:54.162Z,100342.59
2022-09-06T22:13:42.920Z,100341.56
2022-09-06T22:16:35.544Z,100339.47
2022-09-06T22:19:25.759Z,100343.44
2022-09-06T22:22:14.432Z,100353.31
2022-09-06T22:25:02.929Z,100349.59
2022-09-06T22:27:51.561Z,100349.16
2022-09-06T22:30:40.110Z,100351.25
2022-09-06T22:33:29.349Z,100352.88
2022-09-06T22:36:19.282Z,100352.88
2022-09-06T22:39:07.755Z,100351.03
2022-09-06T22:41:56.263Z,100347.50
2022-09-06T22:44:44.791Z,100346.72
2022-09-06T22:47:33.891Z,100345.88
2022-09-06T22:50:23.680Z,100345.88
2022-09-06T22:53:13.623Z,100351.25
2022-09-06T22:56:03.447Z,100360.72
2022-09-06T22:58:51.952Z,100357.19
2022-09-06T23:01:40.746Z,100351.25
2022-09-06T23:04:29.446Z,100357.44
2022-09-06T23:07:18.009Z,100355.78
2022-09-06T23:10:08.898Z,100358.25
2022-09-06T23:12:57.940Z,100345.88
2022-09-06T23:15:48.013Z,100344.22
2022-09-06T23:18:36.857Z,100348.78
2022-09-06T23:21:27.107Z,100354.97
2022-09-06T23:24:16.117Z,100340.50
2022-09-06T23:27:06.208Z,100336.78
2022-09-06T23:29:54.709Z,100335.38
2022-09-06T23:32:43.292Z,100339.91
2022-09-06T23:35:31.858Z,100328.16
2022-09-06T23:38:20.578Z,100329.78
2022-09-06T23:41:10.376Z,100324.03
2022-09-06T23:44:00.461Z,100331.03
2022-09-06T23:46:49.134Z,100321.34
2022-09-06T23:49:37.692Z,100317.03
2022-09-06T23:52:26.176Z,100322.38
2022-09-06T23:55:14.791Z,100316.81
2022-09-06T23:58:03.322Z,100309.97
